sensor_id;sensor_type;location;lat;lon;timestamp;P1;durP1;ratioP1;P2;durP2;ratioP2
3647;SDS011;1840;48.892;15.312;2023-05-10T00:00:30;7.43;;;3.67;;
3647;SDS011;1840;48.892;15.312;2023-05-10T00:02:58;7.57;;;3.60;;
3647;SDS011;1840;48.892;15.312;2023-05-10T00:05:26;11.80;;;4.07;;
3647;SDS011;1840;48.892;15.312;2023-05-10T00:07:54;6.13;;;4.07;;
3647;SDS011;1840;48.892;15.312;2023-05-10T00:10:24;27.57;;;4.33;;
3647;SDS011;1840;48.892;15.312;2023-05-10T00:12:52;8.82;;;3.60;;
3647;SDS011;1840;48.892;15.312;2023-05-10T00:15:20;5.93;;;3.90;;
3647;SDS011;1840;48.892;15.312;2023-05-10T00:17:48;10.40;;;3.40;;
3647;SDS011;1840;48.892;15.312;2023-05-10T00:20:16;8.50;;;3.90;;
3647;SDS011;1840;48.892;15.312;2023-05-10T00:22:44;5.30;;;3.57;;
3647;SDS011;1840;48.892;15.312;2023-05-10T00:25:12;7.80;;;4.37;;
3647;SDS011;1840;48.892;15.312;2023-05-10T00:27:41;6.53;;;3.47;;
3647;SDS011;1840;48.892;15.312;2023-05-10T00:30:09;6.67;;;3.80;;
3647;SDS011;1840;48.892;15.312;2023-05-10T00:32:38;6.50;;;3.47;;
3647;SDS011;1840;48.892;15.312;2023-05-10T00:35:06;6.00;;;3.50;;
3647;SDS011;1840;48.892;15.312;2023-05-10T00:37:35;5.83;;;3.27;;
3647;SDS011;1840;48.892;15.312;2023-05-10T00:40:03;6.33;;;3.43;;
3647;SDS011;1840;48.892;15.312;2023-05-10T00:42:32;5.82;;;3.50;;
3647;SDS011;1840;48.892;15.312;2023-05-10T00:45:02;7.37;;;3.77;;
3647;SDS011;1840;48.892;15.312;2023-05-10T00:47:30;11.53;;;4.00;;
3647;SDS011;1840;48.892;15.312;2023-05-10T00:49:59;7.17;;;3.83;;
3647;SDS011;1840;48.892;15.312;2023-05-10T00:52:27;8.03;;;3.60;;
3647;SDS011;1840;48.892;15.312;2023-05-10T00:54:56;7.27;;;3.83;;
3647;SDS011;1840;48.892;15.312;2023-05-10T00:57:25;6.27;;;3.90;;
3647;SDS011;1840;48.892;15.312;2023-05-10T00:59:53;8.13;;;3.17;;
3647;SDS011;1840;48.892;15.312;2023-05-10T01:02:22;8.43;;;4.10;;
3647;SDS011;1840;48.892;15.312;2023-05-10T01:04:51;6.20;;;3.50;;
3647;SDS011;1840;48.892;15.312;2023-05-10T01:07:20;7.22;;;3.30;;
3647;SDS011;1840;48.892;15.312;2023-05-10T01:09:48;7.63;;;3.90;;
3647;SDS011;1840;48.892;15.312;2023-05-10T01:12:16;6.47;;;4.13;;
3647;SDS011;1840;48.892;15.312;2023-05-10T01:14:44;6.90;;;4.00;;
3647;SDS011;1840;48.892;15.312;2023-05-10T01:17:12;6.33;;;3.87;;
3647;SDS011;1840;48.892;15.312;2023-05-10T01:19:43;6.33;;;3.93;;
3647;SDS011;1840;48.892;15.312;2023-05-10T01:22:16;13.00;;;3.90;;
3647;SDS011;1840;48.892;15.312;2023-05-10T01:28:15;7.27;;;3.97;;
3647;SDS011;1840;48.892;15.312;2023-05-10T01:33:51;10.27;;;3.90;;
3647;SDS011;1840;48.892;15.312;2023-05-10T01:36:23;7.55;;;3.53;;
3647;SDS011;1840;48.892;15.312;2023-05-10T01:38:58;7.43;;;3.50;;
3647;SDS011;1840;48.892;15.312;2023-05-10T01:41:40;17.17;;;4.57;;
3647;SDS011;1840;48.892;15.312;2023-05-10T01:44:14;6.10;;;4.07;;
3647;SDS011;1840;48.892;15.312;2023-05-10T01:46:50;7.28;;;3.67;;
3647;SDS011;1840;48.892;15.312;2023-05-10T01:49:25;9.00;;;4.30;;
3647;SDS011;1840;48.892;15.312;2023-05-10T01:51:59;5.80;;;4.00;;
3647;SDS011;1840;48.892;15.312;2023-05-10T01:54:31;7.13;;;3.53;;
3647;SDS011;1840;48.892;15.312;2023-05-10T01:57:02;6.00;;;4.17;;
3647;SDS011;1840;48.892;15.312;2023-05-10T01:59:34;9.27;;;4.67;;
3647;SDS011;1840;48.892;15.312;2023-05-10T02:02:07;5.50;;;3.60;;
3647;SDS011;1840;48.892;15.312;2023-05-10T02:04:39;5.28;;;3.75;;
3647;SDS011;1840;48.892;15.312;2023-05-10T02:07:09;5.87;;;4.17;;
3647;SDS011;1840;48.892;15.312;2023-05-10T02:09:37;5.37;;;3.53;;
3647;SDS011;1840;48.892;15.312;2023-05-10T02:12:06;9.15;;;4.25;;
3647;SDS011;1840;48.892;15.312;2023-05-10T02:14:35;9.67;;;4.00;;
3647;SDS011;1840;48.892;15.312;2023-05-10T02:17:04;6.57;;;4.20;;
3647;SDS011;1840;48.892;15.312;2023-05-10T02:19:33;12.00;;;4.57;;
3647;SDS011;1840;48.892;15.312;2023-05-10T02:22:05;11.10;;;3.90;;
3647;SDS011;1840;48.892;15.312;2023-05-10T02:24:34;8.75;;;3.38;;
3647;SDS011;1840;48.892;15.312;2023-05-10T02:27:03;6.30;;;3.90;;
3647;SDS011;1840;48.892;15.312;2023-05-10T02:29:32;13.60;;;5.00;;
3647;SDS011;1840;48.892;15.312;2023-05-10T02:32:01;7.87;;;4.20;;
3647;SDS011;1840;48.892;15.312;2023-05-10T02:34:30;7.90;;;4.40;;
3647;SDS011;1840;48.892;15.312;2023-05-10T02:36:59;6.60;;;3.60;;
3647;SDS011;1840;48.892;15.312;2023-05-10T02:39:31;7.00;;;4.20;;
3647;SDS011;1840;48.892;15.312;2023-05-10T02:42:00;15.10;;;4.70;;
3647;SDS011;1840;48.892;15.312;2023-05-10T02:44:29;8.90;;;4.50;;
3647;SDS011;1840;48.892;15.312;2023-05-10T02:46:58;7.83;;;4.30;;
3647;SDS011;1840;48.892;15.312;2023-05-10T02:49:26;7.47;;;4.20;;
3647;SDS011;1840;48.892;15.312;2023-05-10T02:51:55;9.57;;;5.03;;
3647;SDS011;1840;48.892;15.312;2023-05-10T02:54:29;5.00;;;4.00;;
3647;SDS011;1840;48.892;15.312;2023-05-10T02:57:00;13.83;;;6.43;;
3647;SDS011;1840;48.892;15.312;2023-05-10T02:59:33;22.30;;;10.00;;
3647;SDS011;1840;48.892;15.312;2023-05-10T03:02:01;19.33;;;8.83;;
3647;SDS011;1840;48.892;15.312;2023-05-10T03:04:30;12.87;;;6.37;;
3647;SDS011;1840;48.892;15.312;2023-05-10T03:06:58;7.70;;;5.47;;
3647;SDS011;1840;48.892;15.312;2023-05-10T03:09:26;10.40;;;6.00;;
3647;SDS011;1840;48.892;15.312;2023-05-10T03:11:56;7.20;;;4.70;;
3647;SDS011;1840;48.892;15.312;2023-05-10T03:14:34;7.50;;;4.30;;
3647;SDS011;1840;48.892;15.312;2023-05-10T03:17:15;8.77;;;4.85;;
3647;SDS011;1840;48.892;15.312;2023-05-10T03:19:50;7.40;;;4.10;;
3647;SDS011;1840;48.892;15.312;2023-05-10T03:22:23;10.45;;;4.40;;
3647;SDS011;1840;48.892;15.312;2023-05-10T03:24:55;7.83;;;4.80;;
3647;SDS011;1840;48.892;15.312;2023-05-10T03:27:26;5.93;;;4.17;;
3647;SDS011;1840;48.892;15.312;2023-05-10T03:29:56;7.77;;;4.80;;
3647;SDS011;1840;48.892;15.312;2023-05-10T03:32:25;8.40;;;5.17;;
3647;SDS011;1840;48.892;15.312;2023-05-10T03:34:53;8.52;;;4.72;;
3647;SDS011;1840;48.892;15.312;2023-05-10T03:37:21;11.40;;;5.13;;
3647;SDS011;1840;48.892;15.312;2023-05-10T03:39:49;10.57;;;4.73;;
3647;SDS011;1840;48.892;15.312;2023-05-10T03:42:17;9.97;;;5.17;;
3647;SDS011;1840;48.892;15.312;2023-05-10T03:44:47;8.20;;;4.70;;
3647;SDS011;1840;48.892;15.312;2023-05-10T03:47:15;7.57;;;5.13;;
3647;SDS011;1840;48.892;15.312;2023-05-10T03:49:43;22.60;;;7.83;;
3647;SDS011;1840;48.892;15.312;2023-05-10T03:52:11;9.00;;;5.80;;
3647;SDS011;1840;48.892;15.312;2023-05-10T03:54:39;7.90;;;5.17;;
3647;SDS011;1840;48.892;15.312;2023-05-10T03:57:07;8.63;;;4.77;;
3647;SDS011;1840;48.892;15.312;2023-05-10T03:59:35;7.43;;;5.23;;
3647;SDS011;1840;48.892;15.312;2023-05-10T04:02:05;8.90;;;5.00;;
3647;SDS011;1840;48.892;15.312;2023-05-10T04:04:33;7.67;;;5.50;;
3647;SDS011;1840;48.892;15.312;2023-05-10T04:07:01;8.10;;;5.50;;
3647;SDS011;1840;48.892;15.312;2023-05-10T04:09:29;9.87;;;5.13;;
3647;SDS011;1840;48.892;15.312;2023-05-10T04:11:58;12.43;;;5.70;;
3647;SDS011;1840;48.892;15.312;2023-05-10T04:14:28;9.07;;;5.27;;
3647;SDS011;1840;48.892;15.312;2023-05-10T04:16:56;11.50;;;5.10;;
3647;SDS011;1840;48.892;15.312;2023-05-10T04:19:28;11.83;;;5.87;;
3647;SDS011;1840;48.892;15.312;2023-05-10T04:21:57;11.33;;;5.93;;
3647;SDS011;1840;48.892;15.312;2023-05-10T04:24:26;9.63;;;6.30;;
3647;SDS011;1840;48.892;15.312;2023-05-10T04:26:54;10.07;;;5.77;;
3647;SDS011;1840;48.892;15.312;2023-05-10T04:29:23;8.33;;;5.83;;
3647;SDS011;1840;48.892;15.312;2023-05-10T04:31:51;10.30;;;6.27;;
3647;SDS011;1840;48.892;15.312;2023-05-10T04:34:20;8.20;;;5.63;;
3647;SDS011;1840;48.892;15.312;2023-05-10T04:36:49;11.97;;;7.27;;
3647;SDS011;1840;48.892;15.312;2023-05-10T04:39:17;11.20;;;6.30;;
3647;SDS011;1840;48.892;15.312;2023-05-10T04:41:45;9.57;;;5.70;;
3647;SDS011;1840;48.892;15.312;2023-05-10T04:44:13;10.70;;;5.50;;
3647;SDS011;1840;48.892;15.312;2023-05-10T04:46:41;9.40;;;6.20;;
3647;SDS011;1840;48.892;15.312;2023-05-10T04:49:09;13.50;;;6.07;;
3647;SDS011;1840;48.892;15.312;2023-05-10T04:51:38;14.50;;;6.93;;
3647;SDS011;1840;48.892;15.312;2023-05-10T04:54:07;10.20;;;6.37;;
3647;SDS011;1840;48.892;15.312;2023-05-10T04:56:35;9.98;;;6.15;;
3647;SDS011;1840;48.892;15.312;2023-05-10T04:59:03;11.57;;;6.78;;
3647;SDS011;1840;48.892;15.312;2023-05-10T05:01:31;12.60;;;7.27;;
3647;SDS011;1840;48.892;15.312;2023-05-10T05:03:59;10.50;;;6.00;;
3647;SDS011;1840;48.892;15.312;2023-05-10T05:06:27;18.33;;;6.60;;
3647;SDS011;1840;48.892;15.312;2023-05-10T05:08:55;12.73;;;6.90;;
3647;SDS011;1840;48.892;15.312;2023-05-10T05:11:25;10.40;;;6.37;;
3647;SDS011;1840;48.892;15.312;2023-05-10T05:13:53;11.43;;;6.33;;
3647;SDS011;1840;48.892;15.312;2023-05-10T05:16:21;9.57;;;6.10;;
3647;SDS011;1840;48.892;15.312;2023-05-10T05:18:49;10.80;;;6.17;;
3647;SDS011;1840;48.892;15.312;2023-05-10T05:21:18;13.27;;;6.33;;
3647;SDS011;1840;48.892;15.312;2023-05-10T05:23:47;9.60;;;6.77;;
3647;SDS011;1840;48.892;15.312;2023-05-10T05:26:15;10.47;;;5.73;;
3647;SDS011;1840;48.892;15.312;2023-05-10T05:28:45;16.52;;;6.65;;
3647;SDS011;1840;48.892;15.312;2023-05-10T05:31:14;11.93;;;6.90;;
3647;SDS011;1840;48.892;15.312;2023-05-10T05:33:42;9.13;;;6.40;;
3647;SDS011;1840;48.892;15.312;2023-05-10T05:36:10;17.63;;;7.10;;
3647;SDS011;1840;48.892;15.312;2023-05-10T05:38:38;15.57;;;6.50;;
3647;SDS011;1840;48.892;15.312;2023-05-10T05:41:06;12.60;;;6.53;;
3647;SDS011;1840;48.892;15.312;2023-05-10T05:43:34;12.00;;;6.60;;
3647;SDS011;1840;48.892;15.312;2023-05-10T05:46:05;10.70;;;5.33;;
3647;SDS011;1840;48.892;15.312;2023-05-10T05:48:33;11.25;;;6.28;;
3647;SDS011;1840;48.892;15.312;2023-05-10T05:51:01;10.10;;;5.97;;
3647;SDS011;1840;48.892;15.312;2023-05-10T05:53:32;9.10;;;6.27;;
3647;SDS011;1840;48.892;15.312;2023-05-10T05:56:00;10.23;;;6.67;;
3647;SDS011;1840;48.892;15.312;2023-05-10T05:58:29;14.23;;;7.50;;
3647;SDS011;1840;48.892;15.312;2023-05-10T06:00:57;9.57;;;5.37;;
3647;SDS011;1840;48.892;15.312;2023-05-10T06:03:27;8.90;;;5.20;;
3647;SDS011;1840;48.892;15.312;2023-05-10T06:05:55;8.30;;;5.83;;
3647;SDS011;1840;48.892;15.312;2023-05-10T06:08:23;9.77;;;5.37;;
3647;SDS011;1840;48.892;15.312;2023-05-10T06:10:51;25.33;;;9.30;;
3647;SDS011;1840;48.892;15.312;2023-05-10T06:13:19;14.13;;;6.20;;
3647;SDS011;1840;48.892;15.312;2023-05-10T06:15:48;11.23;;;5.77;;
3647;SDS011;1840;48.892;15.312;2023-05-10T06:18:16;7.20;;;4.77;;
3647;SDS011;1840;48.892;15.312;2023-05-10T06:20:45;11.23;;;5.57;;
3647;SDS011;1840;48.892;15.312;2023-05-10T06:23:13;14.93;;;9.13;;
3647;SDS011;1840;48.892;15.312;2023-05-10T06:25:41;10.90;;;6.90;;
3647;SDS011;1840;48.892;15.312;2023-05-10T06:28:09;10.43;;;6.80;;
3647;SDS011;1840;48.892;15.312;2023-05-10T06:30:37;11.50;;;4.90;;
3647;SDS011;1840;48.892;15.312;2023-05-10T06:33:05;8.73;;;4.73;;
3647;SDS011;1840;48.892;15.312;2023-05-10T06:35:33;13.63;;;8.90;;
3647;SDS011;1840;48.892;15.312;2023-05-10T06:38:02;8.63;;;5.10;;
3647;SDS011;1840;48.892;15.312;2023-05-10T06:40:31;10.77;;;6.30;;
3647;SDS011;1840;48.892;15.312;2023-05-10T06:42:59;10.47;;;5.60;;
3647;SDS011;1840;48.892;15.312;2023-05-10T06:45:27;9.07;;;6.00;;
3647;SDS011;1840;48.892;15.312;2023-05-10T06:47:55;20.63;;;8.60;;
3647;SDS011;1840;48.892;15.312;2023-05-10T06:50:23;14.87;;;7.20;;
3647;SDS011;1840;48.892;15.312;2023-05-10T06:52:51;16.03;;;9.63;;
3647;SDS011;1840;48.892;15.312;2023-05-10T06:55:20;13.70;;;5.83;;
3647;SDS011;1840;48.892;15.312;2023-05-10T06:57:48;10.67;;;4.87;;
3647;SDS011;1840;48.892;15.312;2023-05-10T07:00:17;7.07;;;4.80;;
3647;SDS011;1840;48.892;15.312;2023-05-10T07:02:46;7.03;;;4.77;;
3647;SDS011;1840;48.892;15.312;2023-05-10T07:05:14;7.50;;;4.40;;
3647;SDS011;1840;48.892;15.312;2023-05-10T07:07:44;8.80;;;4.37;;
3647;SDS011;1840;48.892;15.312;2023-05-10T07:10:12;11.97;;;6.17;;
3647;SDS011;1840;48.892;15.312;2023-05-10T07:12:42;11.60;;;7.70;;
3647;SDS011;1840;48.892;15.312;2023-05-10T07:15:10;8.60;;;5.20;;
3647;SDS011;1840;48.892;15.312;2023-05-10T07:17:39;6.70;;;4.30;;
3647;SDS011;1840;48.892;15.312;2023-05-10T07:20:10;11.57;;;4.80;;
3647;SDS011;1840;48.892;15.312;2023-05-10T07:22:39;10.83;;;5.17;;
3647;SDS011;1840;48.892;15.312;2023-05-10T07:25:07;9.50;;;4.80;;
3647;SDS011;1840;48.892;15.312;2023-05-10T07:27:35;8.43;;;4.50;;
3647;SDS011;1840;48.892;15.312;2023-05-10T07:30:05;16.27;;;4.80;;
3647;SDS011;1840;48.892;15.312;2023-05-10T07:32:34;14.87;;;5.17;;
3647;SDS011;1840;48.892;15.312;2023-05-10T07:35:02;9.80;;;4.57;;
3647;SDS011;1840;48.892;15.312;2023-05-10T07:37:31;7.23;;;4.47;;
3647;SDS011;1840;48.892;15.312;2023-05-10T07:39:59;7.63;;;4.20;;
3647;SDS011;1840;48.892;15.312;2023-05-10T07:42:28;8.27;;;4.33;;
3647;SDS011;1840;48.892;15.312;2023-05-10T07:44:56;7.30;;;4.17;;
3647;SDS011;1840;48.892;15.312;2023-05-10T07:47:25;9.73;;;4.90;;
3647;SDS011;1840;48.892;15.312;2023-05-10T07:49:53;11.52;;;4.78;;
3647;SDS011;1840;48.892;15.312;2023-05-10T07:52:21;10.07;;;5.13;;
3647;SDS011;1840;48.892;15.312;2023-05-10T07:54:49;9.43;;;4.40;;
3647;SDS011;1840;48.892;15.312;2023-05-10T07:57:18;8.57;;;4.70;;
3647;SDS011;1840;48.892;15.312;2023-05-10T07:59:46;6.80;;;4.40;;
3647;SDS011;1840;48.892;15.312;2023-05-10T08:02:14;7.07;;;4.37;;
3647;SDS011;1840;48.892;15.312;2023-05-10T08:04:43;8.73;;;5.10;;
3647;SDS011;1840;48.892;15.312;2023-05-10T08:07:11;7.40;;;4.53;;
3647;SDS011;1840;48.892;15.312;2023-05-10T08:09:39;14.50;;;5.13;;
3647;SDS011;1840;48.892;15.312;2023-05-10T08:12:07;8.87;;;5.10;;
3647;SDS011;1840;48.892;15.312;2023-05-10T08:14:35;12.87;;;5.40;;
3647;SDS011;1840;48.892;15.312;2023-05-10T08:17:03;8.77;;;4.80;;
3647;SDS011;1840;48.892;15.312;2023-05-10T08:19:32;10.05;;;5.03;;
3647;SDS011;1840;48.892;15.312;2023-05-10T08:22:01;12.87;;;5.07;;
3647;SDS011;1840;48.892;15.312;2023-05-10T08:24:29;8.20;;;5.07;;
3647;SDS011;1840;48.892;15.312;2023-05-10T08:26:57;8.37;;;4.23;;
3647;SDS011;1840;48.892;15.312;2023-05-10T08:29:26;10.10;;;5.50;;
3647;SDS011;1840;48.892;15.312;2023-05-10T08:32:00;7.93;;;4.60;;
3647;SDS011;1840;48.892;15.312;2023-05-10T08:34:28;12.70;;;4.53;;
3647;SDS011;1840;48.892;15.312;2023-05-10T08:36:57;9.80;;;4.20;;
3647;SDS011;1840;48.892;15.312;2023-05-10T08:39:26;11.33;;;4.67;;
3647;SDS011;1840;48.892;15.312;2023-05-10T08:41:57;7.60;;;4.20;;
3647;SDS011;1840;48.892;15.312;2023-05-10T08:44:31;17.70;;;4.63;;
3647;SDS011;1840;48.892;15.312;2023-05-10T08:47:02;8.17;;;4.33;;
3647;SDS011;1840;48.892;15.312;2023-05-10T08:49:33;7.57;;;3.70;;
3647;SDS011;1840;48.892;15.312;2023-05-10T08:52:02;9.30;;;4.45;;
3647;SDS011;1840;48.892;15.312;2023-05-10T08:54:33;8.13;;;3.97;;
3647;SDS011;1840;48.892;15.312;2023-05-10T08:57:01;7.00;;;4.40;;
3647;SDS011;1840;48.892;15.312;2023-05-10T08:59:29;6.10;;;4.10;;
3647;SDS011;1840;48.892;15.312;2023-05-10T09:01:58;10.50;;;4.37;;
3647;SDS011;1840;48.892;15.312;2023-05-10T09:04:26;6.40;;;3.90;;
3647;SDS011;1840;48.892;15.312;2023-05-10T09:06:55;9.43;;;4.03;;
3647;SDS011;1840;48.892;15.312;2023-05-10T09:09:23;7.33;;;4.00;;
3647;SDS011;1840;48.892;15.312;2023-05-10T09:11:54;7.53;;;4.20;;
3647;SDS011;1840;48.892;15.312;2023-05-10T09:14:23;7.30;;;4.30;;
3647;SDS011;1840;48.892;15.312;2023-05-10T09:16:52;11.57;;;4.60;;
3647;SDS011;1840;48.892;15.312;2023-05-10T09:19:21;9.30;;;4.50;;
3647;SDS011;1840;48.892;15.312;2023-05-10T09:21:49;7.20;;;4.10;;
3647;SDS011;1840;48.892;15.312;2023-05-10T09:24:17;11.40;;;4.80;;
3647;SDS011;1840;48.892;15.312;2023-05-10T09:26:45;9.33;;;3.97;;
3647;SDS011;1840;48.892;15.312;2023-05-10T09:29:16;6.03;;;3.40;;
3647;SDS011;1840;48.892;15.312;2023-05-10T09:31:45;6.70;;;4.40;;
3647;SDS011;1840;48.892;15.312;2023-05-10T09:34:18;11.53;;;4.60;;
3647;SDS011;1840;48.892;15.312;2023-05-10T09:36:51;10.53;;;4.40;;
3647;SDS011;1840;48.892;15.312;2023-05-10T09:39:20;21.00;;;5.03;;
3647;SDS011;1840;48.892;15.312;2023-05-10T09:41:57;8.40;;;4.30;;
3647;SDS011;1840;48.892;15.312;2023-05-10T09:44:27;7.68;;;4.28;;
3647;SDS011;1840;48.892;15.312;2023-05-10T09:46:55;9.43;;;5.30;;
3647;SDS011;1840;48.892;15.312;2023-05-10T09:49:23;8.73;;;5.10;;
3647;SDS011;1840;48.892;15.312;2023-05-10T09:51:59;7.57;;;3.53;;
3647;SDS011;1840;48.892;15.312;2023-05-10T09:54:28;6.70;;;3.80;;
3647;SDS011;1840;48.892;15.312;2023-05-10T09:56:57;12.97;;;3.80;;
3647;SDS011;1840;48.892;15.312;2023-05-10T09:59:25;10.90;;;3.50;;
3647;SDS011;1840;48.892;15.312;2023-05-10T10:01:55;8.53;;;3.80;;
3647;SDS011;1840;48.892;15.312;2023-05-10T10:04:24;8.50;;;3.70;;
3647;SDS011;1840;48.892;15.312;2023-05-10T10:06:59;7.60;;;4.10;;
3647;SDS011;1840;48.892;15.312;2023-05-10T10:09:29;11.90;;;4.10;;
3647;SDS011;1840;48.892;15.312;2023-05-10T10:11:58;14.73;;;4.47;;
3647;SDS011;1840;48.892;15.312;2023-05-10T10:14:28;9.53;;;3.87;;
3647;SDS011;1840;48.892;15.312;2023-05-10T10:16:56;8.00;;;3.60;;
3647;SDS011;1840;48.892;15.312;2023-05-10T10:19:30;8.00;;;3.37;;
3647;SDS011;1840;48.892;15.312;2023-05-10T10:22:01;6.80;;;3.63;;
3647;SDS011;1840;48.892;15.312;2023-05-10T10:24:29;8.30;;;3.17;;
3647;SDS011;1840;48.892;15.312;2023-05-10T10:26:58;7.03;;;3.53;;
3647;SDS011;1840;48.892;15.312;2023-05-10T10:29:36;15.33;;;3.40;;
3647;SDS011;1840;48.892;15.312;2023-05-10T10:32:09;12.73;;;3.70;;
3647;SDS011;1840;48.892;15.312;2023-05-10T10:34:46;6.20;;;3.20;;
3647;SDS011;1840;48.892;15.312;2023-05-10T10:37:15;9.37;;;3.37;;
3647;SDS011;1840;48.892;15.312;2023-05-10T10:39:43;8.30;;;3.00;;
3647;SDS011;1840;48.892;15.312;2023-05-10T10:42:11;8.47;;;3.20;;
3647;SDS011;1840;48.892;15.312;2023-05-10T10:44:40;5.67;;;3.00;;
3647;SDS011;1840;48.892;15.312;2023-05-10T10:47:21;6.83;;;3.67;;
3647;SDS011;1840;48.892;15.312;2023-05-10T10:49:51;10.23;;;3.10;;
3647;SDS011;1840;48.892;15.312;2023-05-10T10:52:33;7.03;;;3.97;;
3647;SDS011;1840;48.892;15.312;2023-05-10T10:55:04;7.10;;;2.80;;
3647;SDS011;1840;48.892;15.312;2023-05-10T10:57:42;6.23;;;2.77;;
3647;SDS011;1840;48.892;15.312;2023-05-10T11:00:24;5.93;;;3.03;;
3647;SDS011;1840;48.892;15.312;2023-05-10T11:02:55;12.73;;;4.20;;
3647;SDS011;1840;48.892;15.312;2023-05-10T11:08:12;5.37;;;2.97;;
3647;SDS011;1840;48.892;15.312;2023-05-10T11:10:49;5.10;;;2.60;;
3647;SDS011;1840;48.892;15.312;2023-05-10T11:13:26;6.30;;;2.70;;
3647;SDS011;1840;48.892;15.312;2023-05-10T11:15:58;7.50;;;2.67;;
3647;SDS011;1840;48.892;15.312;2023-05-10T11:18:27;12.70;;;2.90;;
3647;SDS011;1840;48.892;15.312;2023-05-10T11:20:56;7.47;;;2.43;;
3647;SDS011;1840;48.892;15.312;2023-05-10T11:23:29;10.25;;;3.45;;
3647;SDS011;1840;48.892;15.312;2023-05-10T11:25:59;11.83;;;3.60;;
3647;SDS011;1840;48.892;15.312;2023-05-10T11:28:27;5.60;;;2.80;;
3647;SDS011;1840;48.892;15.312;2023-05-10T11:30:55;6.20;;;2.80;;
3647;SDS011;1840;48.892;15.312;2023-05-10T11:33:25;11.70;;;3.17;;
3647;SDS011;1840;48.892;15.312;2023-05-10T11:35:53;10.43;;;4.00;;
3647;SDS011;1840;48.892;15.312;2023-05-10T11:38:21;10.20;;;3.43;;
3647;SDS011;1840;48.892;15.312;2023-05-10T11:40:50;5.27;;;3.10;;
3647;SDS011;1840;48.892;15.312;2023-05-10T11:43:19;8.73;;;2.73;;
3647;SDS011;1840;48.892;15.312;2023-05-10T11:45:54;5.10;;;3.00;;
3647;SDS011;1840;48.892;15.312;2023-05-10T11:48:23;12.87;;;3.57;;
3647;SDS011;1840;48.892;15.312;2023-05-10T11:50:51;7.13;;;2.93;;
3647;SDS011;1840;48.892;15.312;2023-05-10T11:53:23;8.67;;;3.60;;
3647;SDS011;1840;48.892;15.312;2023-05-10T11:55:53;12.20;;;3.30;;
3647;SDS011;1840;48.892;15.312;2023-05-10T11:58:21;11.80;;;2.70;;
3647;SDS011;1840;48.892;15.312;2023-05-10T12:00:50;5.90;;;3.30;;
3647;SDS011;1840;48.892;15.312;2023-05-10T12:03:18;6.60;;;4.00;;
3647;SDS011;1840;48.892;15.312;2023-05-10T12:05:48;6.80;;;3.13;;
3647;SDS011;1840;48.892;15.312;2023-05-10T12:08:19;6.70;;;3.00;;
3647;SDS011;1840;48.892;15.312;2023-05-10T12:10:48;5.70;;;2.93;;
3647;SDS011;1840;48.892;15.312;2023-05-10T12:13:17;7.90;;;3.80;;
3647;SDS011;1840;48.892;15.312;2023-05-10T12:15:46;8.60;;;3.20;;
3647;SDS011;1840;48.892;15.312;2023-05-10T12:18:23;5.97;;;3.10;;
3647;SDS011;1840;48.892;15.312;2023-05-10T12:20:53;5.17;;;3.10;;
3647;SDS011;1840;48.892;15.312;2023-05-10T12:23:21;12.73;;;3.50;;
3647;SDS011;1840;48.892;15.312;2023-05-10T12:25:49;8.57;;;3.90;;
3647;SDS011;1840;48.892;15.312;2023-05-10T12:28:20;5.87;;;3.63;;
3647;SDS011;1840;48.892;15.312;2023-05-10T12:30:48;18.23;;;4.25;;
3647;SDS011;1840;48.892;15.312;2023-05-10T12:33:16;6.30;;;3.47;;
3647;SDS011;1840;48.892;15.312;2023-05-10T12:35:45;11.80;;;3.17;;
3647;SDS011;1840;48.892;15.312;2023-05-10T12:38:28;7.13;;;3.03;;
3647;SDS011;1840;48.892;15.312;2023-05-10T12:40:59;7.67;;;3.70;;
3647;SDS011;1840;48.892;15.312;2023-05-10T12:43:29;5.43;;;3.10;;
3647;SDS011;1840;48.892;15.312;2023-05-10T12:45:57;8.90;;;4.07;;
3647;SDS011;1840;48.892;15.312;2023-05-10T12:48:26;6.50;;;3.30;;
3647;SDS011;1840;48.892;15.312;2023-05-10T12:50:54;4.70;;;2.90;;
3647;SDS011;1840;48.892;15.312;2023-05-10T12:53:22;5.97;;;3.83;;
3647;SDS011;1840;48.892;15.312;2023-05-10T12:55:52;7.13;;;3.77;;
3647;SDS011;1840;48.892;15.312;2023-05-10T12:58:20;11.13;;;5.87;;
3647;SDS011;1840;48.892;15.312;2023-05-10T13:01:01;7.23;;;3.70;;
3647;SDS011;1840;48.892;15.312;2023-05-10T13:03:29;11.52;;;3.85;;
3647;SDS011;1840;48.892;15.312;2023-05-10T13:05:57;9.87;;;3.50;;
3647;SDS011;1840;48.892;15.312;2023-05-10T13:08:25;7.33;;;3.17;;
3647;SDS011;1840;48.892;15.312;2023-05-10T13:10:57;11.30;;;4.20;;
3647;SDS011;1840;48.892;15.312;2023-05-10T13:13:25;8.70;;;4.00;;
3647;SDS011;1840;48.892;15.312;2023-05-10T13:15:53;14.03;;;3.17;;
3647;SDS011;1840;48.892;15.312;2023-05-10T13:18:21;9.00;;;3.90;;
3647;SDS011;1840;48.892;15.312;2023-05-10T13:20:50;10.77;;;4.10;;
3647;SDS011;1840;48.892;15.312;2023-05-10T13:23:18;24.83;;;5.07;;
3647;SDS011;1840;48.892;15.312;2023-05-10T13:25:46;14.60;;;3.30;;
3647;SDS011;1840;48.892;15.312;2023-05-10T13:28:15;9.85;;;3.42;;
3647;SDS011;1840;48.892;15.312;2023-05-10T13:30:43;12.00;;;3.60;;
3647;SDS011;1840;48.892;15.312;2023-05-10T13:33:11;10.03;;;3.00;;
3647;SDS011;1840;48.892;15.312;2023-05-10T13:35:39;6.00;;;3.00;;
3647;SDS011;1840;48.892;15.312;2023-05-10T13:38:07;6.20;;;3.00;;
3647;SDS011;1840;48.892;15.312;2023-05-10T13:40:35;6.03;;;3.00;;
3647;SDS011;1840;48.892;15.312;2023-05-10T13:43:03;9.13;;;2.73;;
3647;SDS011;1840;48.892;15.312;2023-05-10T13:45:32;5.60;;;2.30;;
3647;SDS011;1840;48.892;15.312;2023-05-10T13:48:00;5.93;;;3.17;;
3647;SDS011;1840;48.892;15.312;2023-05-10T13:50:28;4.90;;;2.80;;
3647;SDS011;1840;48.892;15.312;2023-05-10T13:52:57;6.03;;;2.33;;
3647;SDS011;1840;48.892;15.312;2023-05-10T13:55:25;6.60;;;2.70;;
3647;SDS011;1840;48.892;15.312;2023-05-10T13:57:53;5.67;;;2.53;;
3647;SDS011;1840;48.892;15.312;2023-05-10T14:00:21;6.13;;;2.70;;
3647;SDS011;1840;48.892;15.312;2023-05-10T14:02:50;5.40;;;2.33;;
3647;SDS011;1840;48.892;15.312;2023-05-10T14:05:18;6.83;;;2.60;;
3647;SDS011;1840;48.892;15.312;2023-05-10T14:07:51;12.30;;;2.70;;
3647;SDS011;1840;48.892;15.312;2023-05-10T14:10:19;7.77;;;2.47;;
3647;SDS011;1840;48.892;15.312;2023-05-10T14:12:47;8.32;;;3.05;;
3647;SDS011;1840;48.892;15.312;2023-05-10T14:15:16;6.57;;;2.60;;
3647;SDS011;1840;48.892;15.312;2023-05-10T14:17:45;12.73;;;2.90;;
3647;SDS011;1840;48.892;15.312;2023-05-10T14:20:14;17.50;;;3.33;;
3647;SDS011;1840;48.892;15.312;2023-05-10T14:22:42;8.23;;;3.10;;
3647;SDS011;1840;48.892;15.312;2023-05-10T14:25:10;13.70;;;2.75;;
3647;SDS011;1840;48.892;15.312;2023-05-10T14:27:38;4.43;;;2.10;;
3647;SDS011;1840;48.892;15.312;2023-05-10T14:30:07;11.50;;;2.73;;
3647;SDS011;1840;48.892;15.312;2023-05-10T14:32:36;8.00;;;3.20;;
3647;SDS011;1840;48.892;15.312;2023-05-10T14:35:04;6.43;;;2.73;;
3647;SDS011;1840;48.892;15.312;2023-05-10T14:37:37;13.10;;;3.10;;
3647;SDS011;1840;48.892;15.312;2023-05-10T14:40:07;7.77;;;4.00;;
3647;SDS011;1840;48.892;15.312;2023-05-10T14:42:36;5.37;;;3.07;;
3647;SDS011;1840;48.892;15.312;2023-05-10T14:45:04;4.87;;;2.67;;
3647;SDS011;1840;48.892;15.312;2023-05-10T14:47:33;5.27;;;2.27;;
3647;SDS011;1840;48.892;15.312;2023-05-10T14:50:01;5.10;;;2.87;;
3647;SDS011;1840;48.892;15.312;2023-05-10T14:52:29;4.83;;;2.63;;
3647;SDS011;1840;48.892;15.312;2023-05-10T14:55:01;5.90;;;3.30;;
3647;SDS011;1840;48.892;15.312;2023-05-10T14:57:29;10.77;;;2.80;;
3647;SDS011;1840;48.892;15.312;2023-05-10T14:59:57;17.27;;;3.43;;
3647;SDS011;1840;48.892;15.312;2023-05-10T15:02:25;5.13;;;3.07;;
3647;SDS011;1840;48.892;15.312;2023-05-10T15:04:54;7.80;;;2.57;;
3647;SDS011;1840;48.892;15.312;2023-05-10T15:07:24;5.00;;;2.43;;
3647;SDS011;1840;48.892;15.312;2023-05-10T15:09:52;7.07;;;2.10;;
3647;SDS011;1840;48.892;15.312;2023-05-10T15:12:21;4.00;;;2.17;;
3647;SDS011;1840;48.892;15.312;2023-05-10T15:14:49;6.43;;;2.80;;
3647;SDS011;1840;48.892;15.312;2023-05-10T15:17:17;7.07;;;3.13;;